createdAt,value
2023-03-07T00:00:21.262Z,0.42
2023-03-07T00:03:25.146Z,0.38
2023-03-07T00:06:26.973Z,0.52
2023-03-07T00:09:28.344Z,0.61
2023-03-07T00:12:30.448Z,0.55
2023-03-07T00:15:31.786Z,0.44
2023-03-07T00:18:33.188Z,0.50
2023-03-07T00:21:34.624Z,0.44
2023-03-07T00:24:35.949Z,0.48
2023-03-07T00:27:38.122Z,1.05
2023-03-07T00:30:39.404Z,1.13
2023-03-07T00:33:41.208Z,1.57
2023-03-07T00:36:42.598Z,1.84
2023-03-07T00:39:44.041Z,1.97
2023-03-07T00:42:45.957Z,1.74
2023-03-07T00:45:47.567Z,1.54
2023-03-07T00:48:49.288Z,1.42
2023-03-07T00:51:50.902Z,1.40
2023-03-07T00:54:52.394Z,1.31
2023-03-07T00:57:54.437Z,1.32
2023-03-07T01:00:56.499Z,1.31
2023-03-07T01:03:57.852Z,1.22
2023-03-07T01:06:59.318Z,1.37
2023-03-07T01:10:00.917Z,1.29
2023-03-07T01:13:02.872Z,1.38
2023-03-07T01:16:08.771Z,1.35
2023-03-07T01:19:11.670Z,1.32
2023-03-07T01:22:13.080Z,1.43
2023-03-07T01:25:14.597Z,1.47
2023-03-07T01:28:16.520Z,1.59
2023-03-07T01:31:17.941Z,1.62
2023-03-07T01:34:19.294Z,1.68
2023-03-07T01:37:20.768Z,1.48
2023-03-07T01:40:23.453Z,1.54
2023-03-07T01:43:28.039Z,1.64
2023-03-07T01:46:47.895Z,1.42
2023-03-07T01:49:49.440Z,1.42
2023-03-07T01:52:53.881Z,1.43
2023-03-07T01:55:56.945Z,1.54
2023-03-07T01:58:59.058Z,1.40
2023-03-07T02:02:05.000Z,1.45
2023-03-07T02:05:12.434Z,1.50
2023-03-07T02:08:15.958Z,1.86
2023-03-07T02:11:17.658Z,1.69
2023-03-07T02:14:19.607Z,1.62
2023-03-07T02:17:21.024Z,1.50
2023-03-07T02:20:31.873Z,1.73
2023-03-07T02:23:41.353Z,1.76
2023-03-07T02:26:44.277Z,1.67
2023-03-07T02:29:45.659Z,1.78
2023-03-07T02:32:46.907Z,1.70
2023-03-07T02:35:48.541Z,1.69
2023-03-07T02:38:52.366Z,1.76
2023-03-07T02:41:56.140Z,1.64
2023-03-07T02:44:59.434Z,1.89
2023-03-07T02:48:00.763Z,1.85
2023-03-07T02:51:02.187Z,1.84
2023-03-07T02:54:03.874Z,2.00
2023-03-07T02:57:06.022Z,2.03
2023-03-07T03:00:11.277Z,2.11
2023-03-07T03:03:12.594Z,2.04
2023-03-07T03:06:14.312Z,2.02
2023-03-07T03:09:15.929Z,1.95
2023-03-07T03:12:18.026Z,2.00
2023-03-07T03:15:19.801Z,2.07
2023-03-07T03:18:21.068Z,2.10
2023-03-07T03:21:22.605Z,1.98
2023-03-07T03:24:23.887Z,2.06
2023-03-07T03:27:25.958Z,2.14
2023-03-07T03:30:31.699Z,2.05
2023-03-07T03:33:33.343Z,2.17
2023-03-07T03:36:34.845Z,2.23
2023-03-07T03:39:36.879Z,2.41
2023-03-07T03:42:38.855Z,2.26
2023-03-07T03:45:40.293Z,2.42
2023-03-07T03:48:41.558Z,2.37
2023-03-07T03:51:42.936Z,2.33
2023-03-07T03:54:44.227Z,2.45
2023-03-07T03:57:46.277Z,2.48
2023-03-07T04:00:47.575Z,2.42
2023-03-07T04:03:50.492Z,2.42
2023-03-07T04:06:52.254Z,2.53
2023-03-07T04:09:53.555Z,2.59
2023-03-07T04:12:55.743Z,2.54
2023-03-07T04:15:57.066Z,2.63
2023-03-07T04:18:58.379Z,2.60
2023-03-07T04:21:59.806Z,2.42
2023-03-07T04:25:01.111Z,2.74
2023-03-07T04:28:03.225Z,2.65
2023-03-07T04:31:04.904Z,2.58
2023-03-07T04:34:06.455Z,2.54
2023-03-07T04:37:07.758Z,2.52
2023-03-07T04:40:10.362Z,2.48
2023-03-07T04:43:12.433Z,2.59
2023-03-07T04:46:15.852Z,2.40
2023-03-07T04:49:17.325Z,2.43
2023-03-07T04:52:18.732Z,2.47
2023-03-07T04:55:20.064Z,2.25
2023-03-07T04:58:22.165Z,2.26
2023-03-07T05:01:23.627Z,2.38
2023-03-07T05:04:25.230Z,2.43
2023-03-07T05:07:26.593Z,2.31
2023-03-07T05:10:27.949Z,2.30
2023-03-07T05:13:30.097Z,2.27
2023-03-07T05:16:32.788Z,2.15
2023-03-07T05:19:34.180Z,2.05
2023-03-07T05:22:35.467Z,2.31
2023-03-07T05:25:36.931Z,2.24
2023-03-07T05:28:38.860Z,2.09
2023-03-07T05:31:40.215Z,2.12
2023-03-07T05:34:41.494Z,2.13
2023-03-07T05:37:42.799Z,2.23
2023-03-07T05:40:44.231Z,2.20
2023-03-07T05:43:46.358Z,2.32
2023-03-07T05:46:47.688Z,2.31
2023-03-07T05:49:48.999Z,2.34
2023-03-07T05:52:52.241Z,2.29
2023-03-07T05:55:53.655Z,2.34
2023-03-07T05:58:55.619Z,2.39
2023-03-07T06:01:56.927Z,2.44
2023-03-07T06:04:58.248Z,2.43
2023-03-07T06:07:59.628Z,2.50
2023-03-07T06:11:00.915Z,2.35
2023-03-07T06:14:03.027Z,2.54
2023-03-07T06:17:05.145Z,2.53
2023-03-07T06:20:07.514Z,2.43
2023-03-07T06:23:08.886Z,2.43
2023-03-07T06:26:11.806Z,2.48
2023-03-07T06:29:13.901Z,2.46
2023-03-07T06:32:15.410Z,2.62
2023-03-07T06:35:16.996Z,2.57
2023-03-07T06:38:18.303Z,2.63
2023-03-07T06:41:19.740Z,2.69
2023-03-07T06:44:21.698Z,2.59
2023-03-07T06:47:23.030Z,2.61
2023-03-07T06:50:34.704Z,2.72
2023-03-07T06:53:36.622Z,2.79
2023-03-07T06:56:38.112Z,2.73
2023-03-07T06:59:40.175Z,2.69
2023-03-07T07:02:41.951Z,2.77
2023-03-07T07:05:43.435Z,2.76
2023-03-07T07:08:44.755Z,2.86
2023-03-07T07:11:46.081Z,3.01
2023-03-07T07:14:48.096Z,2.92
2023-03-07T07:17:50.316Z,3.00
2023-03-07T07:24:14.171Z,3.16
2023-03-07T07:27:15.678Z,3.23
2023-03-07T07:30:17.831Z,3.35
2023-03-07T07:33:19.544Z,3.39
2023-03-07T07:36:23.018Z,3.25
2023-03-07T07:39:24.359Z,3.30
2023-03-07T07:42:25.793Z,3.50
2023-03-07T07:45:27.721Z,3.55
2023-03-07T07:48:29.181Z,3.61
2023-03-07T07:51:30.449Z,3.68
2023-03-07T07:54:31.856Z,3.81
2023-03-07T07:57:33.870Z,3.78
2023-03-07T08:00:37.183Z,3.72
2023-03-07T08:03:40.318Z,3.70
2023-03-07T08:06:43.441Z,3.87
2023-03-07T08:09:44.805Z,3.80
2023-03-07T08:12:50.612Z,3.79
2023-03-07T08:15:52.628Z,3.78
2023-03-07T08:18:56.001Z,3.70
2023-03-07T08:21:58.084Z,3.77
2023-03-07T08:24:59.463Z,3.81
2023-03-07T08:28:02.757Z,3.86
2023-03-07T08:31:07.683Z,3.81
2023-03-07T08:34:09.156Z,4.00
2023-03-07T08:37:10.499Z,3.80
2023-03-07T08:40:13.645Z,3.83
2023-03-07T08:43:15.100Z,4.01
2023-03-07T08:46:17.314Z,4.06
2023-03-07T08:49:18.679Z,4.08
2023-03-07T08:52:20.167Z,4.14
2023-03-07T08:55:21.473Z,4.05
2023-03-07T08:58:22.852Z,4.09
2023-03-07T09:01:25.126Z,4.15
2023-03-07T09:04:26.609Z,4.29
2023-03-07T09:07:27.930Z,4.33
2023-03-07T09:10:29.270Z,4.48
2023-03-07T09:13:36.251Z,4.64
2023-03-07T09:16:42.439Z,4.68
2023-03-07T09:19:43.905Z,4.69
2023-03-07T09:22:45.956Z,4.84
2023-03-07T09:25:47.477Z,4.92
2023-03-07T09:28:48.811Z,5.00
2023-03-07T09:31:51.147Z,5.20
2023-03-07T09:34:52.914Z,5.07
2023-03-07T09:37:54.221Z,4.95
2023-03-07T09:41:01.516Z,5.26
2023-03-07T09:44:11.335Z,5.27
2023-03-07T09:47:34.178Z,5.47
2023-03-07T09:50:44.605Z,5.39
2023-03-07T09:53:49.521Z,5.42
2023-03-07T09:56:54.003Z,5.70
2023-03-07T09:59:58.619Z,6.02
2023-03-07T10:03:13.763Z,6.40
2023-03-07T10:06:24.351Z,6.42
2023-03-07T10:09:26.067Z,6.46
2023-03-07T10:12:43.570Z,6.49
2023-03-07T10:15:47.343Z,6.66
2023-03-07T10:19:00.414Z,6.76
2023-03-07T10:22:09.656Z,6.74
2023-03-07T10:25:23.805Z,6.80
2023-03-07T10:28:28.039Z,6.72
2023-03-07T10:31:33.908Z,6.40
2023-03-07T10:34:36.935Z,6.45
2023-03-07T10:37:44.649Z,6.42
2023-03-07T10:40:50.096Z,6.13
2023-03-07T10:43:53.572Z,6.19
2023-03-07T10:46:58.489Z,6.13
2023-03-07T10:50:16.006Z,6.27
2023-03-07T10:53:24.401Z,6.22
2023-03-07T10:56:25.859Z,6.12
2023-03-07T10:59:27.149Z,6.20
2023-03-07T11:02:34.800Z,6.41
2023-03-07T11:05:36.903Z,6.55
2023-03-07T11:08:38.370Z,6.61
2023-03-07T11:11:39.695Z,6.71
2023-03-07T11:14:47.382Z,6.59
2023-03-07T11:17:48.846Z,6.55
2023-03-07T11:20:51.490Z,6.40
2023-03-07T11:23:59.585Z,6.63
2023-03-07T11:27:01.042Z,6.55
2023-03-07T11:30:08.964Z,6.37
2023-03-07T11:33:17.509Z,6.49
2023-03-07T11:36:27.039Z,6.53
2023-03-07T11:39:33.910Z,6.13
2023-03-07T11:42:41.590Z,6.15
2023-03-07T11:45:51.846Z,6.19
2023-03-07T11:49:06.747Z,6.08
2023-03-07T11:52:23.443Z,6.20
2023-03-07T11:55:30.221Z,6.07
2023-03-07T11:58:56.880Z,5.90
2023-03-07T12:02:01.577Z,5.78
2023-03-07T12:05:32.533Z,5.50
2023-03-07T12:08:48.494Z,5.43
2023-03-07T12:12:04.536Z,5.44
2023-03-07T12:15:35.665Z,5.51
2023-03-07T12:19:03.805Z,5.18
2023-03-07T12:22:22.216Z,5.00
2023-03-07T12:25:30.586Z,5.00
2023-03-07T12:28:39.225Z,5.05
2023-03-07T12:31:45.311Z,4.96
2023-03-07T12:34:53.780Z,4.76
2023-03-07T12:38:02.116Z,4.65
2023-03-07T12:41:19.309Z,4.71
2023-03-07T12:44:31.867Z,4.78
2023-03-07T12:47:50.090Z,4.82
2023-03-07T12:50:59.665Z,4.64
2023-03-07T12:54:09.883Z,4.64
2023-03-07T12:57:17.456Z,4.73
2023-03-07T13:00:22.178Z,4.47
2023-03-07T13:03:34.200Z,4.52
2023-03-07T13:06:39.008Z,4.53
2023-03-07T13:09:42.713Z,4.50
2023-03-07T13:12:44.849Z,4.43
2023-03-07T13:16:03.046Z,4.52
2023-03-07T13:19:41.963Z,4.52
2023-03-07T13:22:59.498Z,4.63
2023-03-07T13:26:04.401Z,4.64
2023-03-07T13:29:08.644Z,4.58
2023-03-07T13:32:56.596Z,4.51
2023-03-07T13:35:59.338Z,4.39
2023-03-07T13:39:01.393Z,4.43
2023-03-07T13:42:02.934Z,4.30
2023-03-07T13:45:46.248Z,4.46
2023-03-07T13:49:01.657Z,4.48
2023-03-07T13:52:33.085Z,4.28
2023-03-07T13:55:45.741Z,4.33
2023-03-07T13:58:54.959Z,4.35
2023-03-07T14:01:59.064Z,4.34
2023-03-07T14:05:03.068Z,4.19
2023-03-07T14:08:05.820Z,4.46
2023-03-07T14:11:17.638Z,4.43
2023-03-07T14:14:36.328Z,4.63
2023-03-07T14:17:56.177Z,4.57
2023-03-07T14:21:06.346Z,4.50
2023-03-07T14:24:33.396Z,4.68
2023-03-07T14:27:50.562Z,4.51
2023-03-07T14:30:54.819Z,4.50
2023-03-07T14:33:57.465Z,4.61
2023-03-07T14:37:00.728Z,4.67
2023-03-07T14:40:27.450Z,4.81
2023-03-07T14:43:41.571Z,4.77
2023-03-07T14:47:01.152Z,4.69
2023-03-07T14:50:12.813Z,4.58
2023-03-07T14:53:18.853Z,4.77
2023-03-07T14:56:23.323Z,4.67
2023-03-07T14:59:28.872Z,4.50
2023-03-07T15:02:30.519Z,4.56
2023-03-07T15:05:35.079Z,4.68
2023-03-07T15:08:37.787Z,4.68
2023-03-07T15:11:43.374Z,4.55
2023-03-07T15:14:47.318Z,4.62
2023-03-07T15:17:48.899Z,4.71
2023-03-07T15:20:54.132Z,4.68
2023-03-07T15:23:57.567Z,4.67
2023-03-07T15:27:00.347Z,4.63
2023-03-07T15:30:03.353Z,4.71
2023-03-07T15:33:12.285Z,4.58
2023-03-07T15:36:24.832Z,4.71
2023-03-07T15:39:33.949Z,4.78
2023-03-07T15:42:48.537Z,4.77
2023-03-07T15:46:01.717Z,4.69
2023-03-07T15:49:03.371Z,4.59
2023-03-07T15:52:06.475Z,4.64
2023-03-07T15:55:17.672Z,4.57
2023-03-07T15:58:19.280Z,4.47
2023-03-07T16:01:22.572Z,4.53
2023-03-07T16:04:36.945Z,4.58
2023-03-07T16:07:38.993Z,4.52
2023-03-07T16:10:46.545Z,4.52
2023-03-07T16:13:48.536Z,4.54
2023-03-07T16:16:50.376Z,4.59
2023-03-07T16:19:51.959Z,4.55
2023-03-07T16:22:54.409Z,4.56
2023-03-07T16:25:56.040Z,4.46
2023-03-07T16:28:59.982Z,4.34
2023-03-07T16:32:01.399Z,4.45
2023-03-07T16:35:10.012Z,4.40
2023-03-07T16:38:12.259Z,4.22
2023-03-07T16:41:16.892Z,4.20
2023-03-07T16:44:20.047Z,4.25
2023-03-07T16:47:21.603Z,4.25
2023-03-07T16:50:25.436Z,4.21
2023-03-07T16:53:27.668Z,4.20
2023-03-07T16:56:32.273Z,4.19
2023-03-07T16:59:36.455Z,4.14
2023-03-07T17:02:37.833Z,4.25
2023-03-07T17:05:39.170Z,4.09
2023-03-07T17:08:41.407Z,3.99
2023-03-07T17:11:46.581Z,4.01
2023-03-07T17:14:48.071Z,4.01
2023-03-07T17:17:49.417Z,4.08
2023-03-07T17:20:51.327Z,4.00
2023-03-07T17:23:53.485Z,3.96
2023-03-07T17:26:56.255Z,3.92
2023-03-07T17:29:57.860Z,4.15
2023-03-07T17:33:00.557Z,3.97
2023-03-07T17:36:01.889Z,3.88
2023-03-07T17:39:04.176Z,3.94
2023-03-07T17:42:05.747Z,3.85
2023-03-07T17:45:09.350Z,3.82
2023-03-07T17:48:10.645Z,3.83
2023-03-07T17:51:12.153Z,3.78
2023-03-07T17:54:14.218Z,3.73
2023-03-07T17:57:15.822Z,3.78
2023-03-07T18:00:20.646Z,3.63
2023-03-07T18:03:22.203Z,3.74
2023-03-07T18:06:24.393Z,3.70
2023-03-07T18:09:26.606Z,3.76
2023-03-07T18:12:27.919Z,3.62
2023-03-07T18:15:29.405Z,3.52
2023-03-07T18:18:32.554Z,3.63
2023-03-07T18:21:34.027Z,3.44
2023-03-07T18:24:36.237Z,3.48
2023-03-07T18:27:37.750Z,3.49
2023-03-07T18:30:39.232Z,3.46
2023-03-07T18:33:41.309Z,3.52
2023-03-07T18:36:43.355Z,3.49
2023-03-07T18:39:45.402Z,3.43
2023-03-07T18:42:46.861Z,3.46
2023-03-07T18:45:48.376Z,3.39
2023-03-07T18:48:50.315Z,3.36
2023-03-07T18:51:51.876Z,3.41
2023-03-07T18:54:53.815Z,3.36
2023-03-07T18:57:55.238Z,3.25
2023-03-07T19:00:56.648Z,3.33
2023-03-07T19:04:02.019Z,3.36
2023-03-07T19:07:04.446Z,3.41
2023-03-07T19:10:07.705Z,3.32
2023-03-07T19:13:09.226Z,3.23
2023-03-07T19:16:12.810Z,3.32
2023-03-07T19:19:14.127Z,3.23
2023-03-07T19:22:20.675Z,3.36
2023-03-07T19:25:22.712Z,3.29
2023-03-07T19:28:24.229Z,3.27
2023-03-07T19:31:27.501Z,3.16
2023-03-07T19:34:28.889Z,3.23
2023-03-07T19:37:30.208Z,3.15
2023-03-07T19:40:32.169Z,3.08
2023-03-07T19:43:33.482Z,3.05
2023-03-07T19:46:34.968Z,3.09
2023-03-07T19:49:36.341Z,3.20
2023-03-07T19:52:37.689Z,3.07
2023-03-07T19:55:39.855Z,3.08
2023-03-07T19:58:41.164Z,3.25
2023-03-07T20:01:42.619Z,3.70
2023-03-07T20:04:43.985Z,3.67
2023-03-07T20:07:45.245Z,3.56
2023-03-07T20:10:47.387Z,3.65
2023-03-07T20:13:49.553Z,3.73
2023-03-07T20:16:51.008Z,3.65
2023-03-07T20:19:52.388Z,3.66
2023-03-07T20:22:54.821Z,3.67
2023-03-07T20:26:02.684Z,3.60
2023-03-07T20:29:06.498Z,3.38
2023-03-07T20:32:07.867Z,3.43
2023-03-07T20:35:09.751Z,3.20
2023-03-07T20:38:11.095Z,3.46
2023-03-07T20:41:15.471Z,3.49
2023-03-07T20:44:17.310Z,3.27
2023-03-07T20:47:19.150Z,3.40
2023-03-07T20:50:20.823Z,3.25
2023-03-07T20:53:22.192Z,3.19
2023-03-07T20:56:25.629Z,3.27
2023-03-07T20:59:27.018Z,3.05
2023-03-07T21:02:28.531Z,3.12
2023-03-07T21:05:29.907Z,3.05
2023-03-07T21:08:32.986Z,2.91
2023-03-07T21:11:35.939Z,3.05
2023-03-07T21:14:40.419Z,2.99
2023-03-07T21:17:41.839Z,3.08
2023-03-07T21:20:43.175Z,3.10
2023-03-07T21:23:45.574Z,3.13
2023-03-07T21:26:47.931Z,2.99
2023-03-07T21:29:49.274Z,3.00
2023-03-07T21:32:54.574Z,3.12
2023-03-07T21:35:55.975Z,3.13
2023-03-07T21:38:58.575Z,2.91
2023-03-07T21:42:00.697Z,2.93
2023-03-07T21:45:02.131Z,3.01
2023-03-07T21:48:03.688Z,2.94
2023-03-07T21:51:05.606Z,2.91
2023-03-07T21:54:07.092Z,2.93
2023-03-07T21:57:09.268Z,2.94
2023-03-07T22:00:14.396Z,2.78
2023-03-07T22:03:16.179Z,2.86
2023-03-07T22:06:17.533Z,2.90
2023-03-07T22:09:20.464Z,2.86
2023-03-07T22:12:22.646Z,3.02
2023-03-07T22:15:24.132Z,2.99
2023-03-07T22:18:26.181Z,3.00
2023-03-07T22:21:27.524Z,2.95
2023-03-07T22:24:29.015Z,2.93
2023-03-07T22:27:31.732Z,2.84
2023-03-07T22:30:33.068Z,2.64
2023-03-07T22:33:34.666Z,2.73
2023-03-07T22:36:36.021Z,2.68
2023-03-07T22:39:37.526Z,2.65
2023-03-07T22:42:39.543Z,2.68
2023-03-07T22:45:41.040Z,2.53
2023-03-07T22:48:42.546Z,2.59
2023-03-07T22:51:43.914Z,2.53
2023-03-07T22:54:45.421Z,2.57
2023-03-07T22:57:47.409Z,2.49
2023-03-07T23:00:48.872Z,2.51
2023-03-07T23:03:51.772Z,2.47
2023-03-07T23:06:53.036Z,2.61
2023-03-07T23:09:54.512Z,2.62
2023-03-07T23:12:56.795Z,2.55
2023-03-07T23:15:58.430Z,2.45
2023-03-07T23:19:00.381Z,2.42
2023-03-07T23:22:01.671Z,2.44
2023-03-07T23:25:04.417Z,2.44
2023-03-07T23:28:06.389Z,2.34
2023-03-07T23:31:15.674Z,2.34
2023-03-07T23:34:18.997Z,2.38
2023-03-07T23:37:20.424Z,2.35
2023-03-07T23:40:21.956Z,2.32
2023-03-07T23:43:23.903Z,2.25
2023-03-07T23:46:26.252Z,2.16
2023-03-07T23:49:27.557Z,2.23
2023-03-07T23:52:28.979Z,2.12
2023-03-07T23:55:30.388Z,2.09
2023-03-07T23:58:32.477Z,2.06
